sensor_id;sensor_type;location;lat;lon;timestamp;P1;durP1;ratioP1;P2;durP2;ratioP2
20523;SDS011;10420;48.542;12.270;2023-02-28T00:02:03;8.73;;;3.97;;
20523;SDS011;10420;48.542;12.270;2023-02-28T00:07:04;10.70;;;5.03;;
20523;SDS011;10420;48.542;12.270;2023-02-28T00:12:04;8.53;;;4.13;;
20523;SDS011;10420;48.542;12.270;2023-02-28T00:17:10;9.53;;;4.80;;
20523;SDS011;10420;48.542;12.270;2023-02-28T00:22:10;12.20;;;4.90;;
20523;SDS011;10420;48.542;12.270;2023-02-28T00:27:11;9.47;;;4.50;;
20523;SDS011;10420;48.542;12.270;2023-02-28T00:32:12;7.77;;;4.10;;
20523;SDS011;10420;48.542;12.270;2023-02-28T00:37:13;9.87;;;4.93;;
20523;SDS011;10420;48.542;12.270;2023-02-28T00:42:13;10.00;;;4.30;;
20523;SDS011;10420;48.542;12.270;2023-02-28T00:47:14;10.67;;;4.87;;
20523;SDS011;10420;48.542;12.270;2023-02-28T00:52:15;9.40;;;5.17;;
20523;SDS011;10420;48.542;12.270;2023-02-28T00:57:16;9.20;;;5.20;;
20523;SDS011;10420;48.542;12.270;2023-02-28T01:02:17;8.50;;;4.13;;
20523;SDS011;10420;48.542;12.270;2023-02-28T01:07:18;10.30;;;4.03;;
20523;SDS011;10420;48.542;12.270;2023-02-28T01:12:18;11.17;;;5.00;;
20523;SDS011;10420;48.542;12.270;2023-02-28T01:17:19;11.87;;;5.00;;
20523;SDS011;10420;48.542;12.270;2023-02-28T01:22:19;10.60;;;5.00;;
20523;SDS011;10420;48.542;12.270;2023-02-28T01:27:20;11.60;;;5.00;;
20523;SDS011;10420;48.542;12.270;2023-02-28T01:32:21;9.87;;;4.03;;
20523;SDS011;10420;48.542;12.270;2023-02-28T01:37:22;10.13;;;5.50;;
20523;SDS011;10420;48.542;12.270;2023-02-28T01:42:22;12.73;;;5.50;;
20523;SDS011;10420;48.542;12.270;2023-02-28T01:47:23;13.73;;;6.00;;
20523;SDS011;10420;48.542;12.270;2023-02-28T01:52:27;12.53;;;6.00;;
20523;SDS011;10420;48.542;12.270;2023-02-28T01:57:30;13.20;;;6.00;;
20523;SDS011;10420;48.542;12.270;2023-02-28T02:02:38;12.83;;;5.93;;
20523;SDS011;10420;48.542;12.270;2023-02-28T02:07:42;14.20;;;6.43;;
20523;SDS011;10420;48.542;12.270;2023-02-28T02:18:07;13.93;;;6.53;;
20523;SDS011;10420;48.542;12.270;2023-02-28T02:39:50;13.57;;;6.40;;
20523;SDS011;10420;48.542;12.270;2023-02-28T02:45:06;15.23;;;7.10;;
20523;SDS011;10420;48.542;12.270;2023-02-28T02:50:20;14.23;;;5.63;;
20523;SDS011;10420;48.542;12.270;2023-02-28T02:55:26;10.67;;;5.63;;
20523;SDS011;10420;48.542;12.270;2023-02-28T03:00:30;16.30;;;6.77;;
20523;SDS011;10420;48.542;12.270;2023-02-28T03:05:35;12.57;;;6.20;;
20523;SDS011;10420;48.542;12.270;2023-02-28T03:10:43;15.03;;;7.20;;
20523;SDS011;10420;48.542;12.270;2023-02-28T03:16:01;14.93;;;6.93;;
20523;SDS011;10420;48.542;12.270;2023-02-28T03:26:21;17.27;;;6.57;;
20523;SDS011;10420;48.542;12.270;2023-02-28T03:36:45;13.80;;;6.30;;
20523;SDS011;10420;48.542;12.270;2023-02-28T03:41:52;17.60;;;7.90;;
20523;SDS011;10420;48.542;12.270;2023-02-28T03:47:12;19.30;;;8.10;;
20523;SDS011;10420;48.542;12.270;2023-02-28T03:52:34;15.90;;;7.23;;
20523;SDS011;10420;48.542;12.270;2023-02-28T04:02:56;19.87;;;8.67;;
20523;SDS011;10420;48.542;12.270;2023-02-28T04:08:04;17.00;;;8.10;;
20523;SDS011;10420;48.542;12.270;2023-02-28T04:13:06;17.13;;;8.23;;
20523;SDS011;10420;48.542;12.270;2023-02-28T04:18:07;19.00;;;7.33;;
20523;SDS011;10420;48.542;12.270;2023-02-28T04:23:08;18.77;;;8.67;;
20523;SDS011;10420;48.542;12.270;2023-02-28T04:28:09;17.03;;;8.93;;
20523;SDS011;10420;48.542;12.270;2023-02-28T04:33:09;16.77;;;8.60;;
20523;SDS011;10420;48.542;12.270;2023-02-28T04:38:10;18.57;;;8.27;;
20523;SDS011;10420;48.542;12.270;2023-02-28T04:43:10;16.50;;;8.20;;
20523;SDS011;10420;48.542;12.270;2023-02-28T04:48:11;18.43;;;9.57;;
20523;SDS011;10420;48.542;12.270;2023-02-28T04:53:12;25.63;;;9.53;;
20523;SDS011;10420;48.542;12.270;2023-02-28T04:58:13;19.33;;;9.37;;
20523;SDS011;10420;48.542;12.270;2023-02-28T05:03:14;20.17;;;8.60;;
20523;SDS011;10420;48.542;12.270;2023-02-28T05:08:14;21.00;;;7.63;;
20523;SDS011;10420;48.542;12.270;2023-02-28T05:13:15;19.70;;;9.37;;
20523;SDS011;10420;48.542;12.270;2023-02-28T05:18:15;23.03;;;9.67;;
20523;SDS011;10420;48.542;12.270;2023-02-28T05:23:16;21.33;;;9.53;;
20523;SDS011;10420;48.542;12.270;2023-02-28T05:28:20;20.73;;;9.20;;
20523;SDS011;10420;48.542;12.270;2023-02-28T05:33:20;21.37;;;9.43;;
20523;SDS011;10420;48.542;12.270;2023-02-28T05:38:21;16.27;;;8.87;;
20523;SDS011;10420;48.542;12.270;2023-02-28T05:43:22;19.03;;;9.73;;
20523;SDS011;10420;48.542;12.270;2023-02-28T05:48:23;21.00;;;9.37;;
20523;SDS011;10420;48.542;12.270;2023-02-28T05:53:24;25.57;;;10.10;;
20523;SDS011;10420;48.542;12.270;2023-02-28T05:58:24;22.87;;;11.00;;
20523;SDS011;10420;48.542;12.270;2023-02-28T06:03:29;22.30;;;9.70;;
20523;SDS011;10420;48.542;12.270;2023-02-28T06:08:29;28.87;;;10.63;;
20523;SDS011;10420;48.542;12.270;2023-02-28T06:13:30;25.23;;;9.43;;
20523;SDS011;10420;48.542;12.270;2023-02-28T06:18:30;22.23;;;9.10;;
20523;SDS011;10420;48.542;12.270;2023-02-28T06:23:31;19.63;;;9.40;;
20523;SDS011;10420;48.542;12.270;2023-02-28T06:28:32;21.10;;;9.63;;
20523;SDS011;10420;48.542;12.270;2023-02-28T06:33:33;21.10;;;9.20;;
20523;SDS011;10420;48.542;12.270;2023-02-28T06:38:34;22.67;;;9.57;;
20523;SDS011;10420;48.542;12.270;2023-02-28T06:43:37;20.40;;;10.17;;
20523;SDS011;10420;48.542;12.270;2023-02-28T06:48:39;22.40;;;9.73;;
20523;SDS011;10420;48.542;12.270;2023-02-28T06:53:40;18.10;;;7.50;;
20523;SDS011;10420;48.542;12.270;2023-02-28T06:58:41;15.37;;;7.83;;
20523;SDS011;10420;48.542;12.270;2023-02-28T07:03:42;24.47;;;10.27;;
20523;SDS011;10420;48.542;12.270;2023-02-28T07:08:42;22.03;;;9.43;;
20523;SDS011;10420;48.542;12.270;2023-02-28T07:13:43;22.63;;;9.80;;
20523;SDS011;10420;48.542;12.270;2023-02-28T07:18:44;34.70;;;10.53;;
20523;SDS011;10420;48.542;12.270;2023-02-28T07:23:44;19.67;;;7.97;;
20523;SDS011;10420;48.542;12.270;2023-02-28T07:28:45;21.47;;;10.63;;
20523;SDS011;10420;48.542;12.270;2023-02-28T07:33:47;21.07;;;10.00;;
20523;SDS011;10420;48.542;12.270;2023-02-28T07:38:48;24.50;;;8.87;;
20523;SDS011;10420;48.542;12.270;2023-02-28T07:43:49;19.23;;;8.87;;
20523;SDS011;10420;48.542;12.270;2023-02-28T07:48:53;18.30;;;7.20;;
20523;SDS011;10420;48.542;12.270;2023-02-28T07:53:55;21.97;;;8.30;;
20523;SDS011;10420;48.542;12.270;2023-02-28T07:58:56;20.23;;;9.70;;
20523;SDS011;10420;48.542;12.270;2023-02-28T08:03:56;19.87;;;8.83;;
20523;SDS011;10420;48.542;12.270;2023-02-28T08:08:57;19.77;;;8.03;;
20523;SDS011;10420;48.542;12.270;2023-02-28T08:13:58;22.10;;;12.40;;
20523;SDS011;10420;48.542;12.270;2023-02-28T08:18:58;20.70;;;8.93;;
20523;SDS011;10420;48.542;12.270;2023-02-28T08:23:59;19.73;;;9.60;;
20523;SDS011;10420;48.542;12.270;2023-02-28T08:29:00;19.47;;;9.43;;
20523;SDS011;10420;48.542;12.270;2023-02-28T08:34:11;23.43;;;9.47;;
20523;SDS011;10420;48.542;12.270;2023-02-28T08:39:13;20.97;;;7.80;;
20523;SDS011;10420;48.542;12.270;2023-02-28T08:44:14;22.23;;;9.20;;
20523;SDS011;10420;48.542;12.270;2023-02-28T08:49:14;16.53;;;7.80;;
20523;SDS011;10420;48.542;12.270;2023-02-28T08:54:15;37.93;;;8.30;;
20523;SDS011;10420;48.542;12.270;2023-02-28T08:59:19;21.10;;;9.43;;
20523;SDS011;10420;48.542;12.270;2023-02-28T09:04:20;15.37;;;7.77;;
20523;SDS011;10420;48.542;12.270;2023-02-28T09:09:21;21.63;;;8.60;;
20523;SDS011;10420;48.542;12.270;2023-02-28T09:14:21;20.50;;;9.13;;
20523;SDS011;10420;48.542;12.270;2023-02-28T09:19:22;17.83;;;9.20;;
20523;SDS011;10420;48.542;12.270;2023-02-28T09:24:23;17.50;;;8.30;;
20523;SDS011;10420;48.542;12.270;2023-02-28T09:29:23;16.20;;;7.73;;
20523;SDS011;10420;48.542;12.270;2023-02-28T09:34:24;17.33;;;8.37;;
20523;SDS011;10420;48.542;12.270;2023-02-28T09:39:25;14.33;;;6.57;;
20523;SDS011;10420;48.542;12.270;2023-02-28T09:44:29;15.67;;;8.27;;
20523;SDS011;10420;48.542;12.270;2023-02-28T09:49:37;15.60;;;8.73;;
20523;SDS011;10420;48.542;12.270;2023-02-28T09:54:42;15.97;;;9.03;;
20523;SDS011;10420;48.542;12.270;2023-02-28T10:05:07;16.60;;;9.83;;
20523;SDS011;10420;48.542;12.270;2023-02-28T10:10:19;14.50;;;8.93;;
20523;SDS011;10420;48.542;12.270;2023-02-28T10:15:31;14.23;;;8.93;;
20523;SDS011;10420;48.542;12.270;2023-02-28T10:20:34;15.93;;;9.50;;
20523;SDS011;10420;48.542;12.270;2023-02-28T10:25:38;14.10;;;8.20;;
20523;SDS011;10420;48.542;12.270;2023-02-28T10:30:41;17.90;;;9.87;;
20523;SDS011;10420;48.542;12.270;2023-02-28T10:35:44;17.73;;;10.07;;
20523;SDS011;10420;48.542;12.270;2023-02-28T10:40:45;15.73;;;8.70;;
20523;SDS011;10420;48.542;12.270;2023-02-28T10:45:53;22.17;;;11.90;;
20523;SDS011;10420;48.542;12.270;2023-02-28T10:50:57;17.60;;;9.60;;
20523;SDS011;10420;48.542;12.270;2023-02-28T11:01:04;21.47;;;11.17;;
20523;SDS011;10420;48.542;12.270;2023-02-28T11:06:06;21.20;;;10.53;;
20523;SDS011;10420;48.542;12.270;2023-02-28T11:11:08;18.60;;;7.60;;
20523;SDS011;10420;48.542;12.270;2023-02-28T11:16:10;21.27;;;11.47;;
20523;SDS011;10420;48.542;12.270;2023-02-28T11:21:16;19.47;;;9.40;;
20523;SDS011;10420;48.542;12.270;2023-02-28T11:26:36;18.00;;;8.43;;
20523;SDS011;10420;48.542;12.270;2023-02-28T11:31:39;21.40;;;10.23;;
20523;SDS011;10420;48.542;12.270;2023-02-28T11:36:39;15.97;;;7.27;;
20523;SDS011;10420;48.542;12.270;2023-02-28T11:41:54;21.20;;;10.60;;
20523;SDS011;10420;48.542;12.270;2023-02-28T11:52:52;22.03;;;9.47;;
20523;SDS011;10420;48.542;12.270;2023-02-28T11:58:14;20.77;;;10.13;;
20523;SDS011;10420;48.542;12.270;2023-02-28T12:03:39;18.37;;;10.47;;
20523;SDS011;10420;48.542;12.270;2023-02-28T12:24:34;27.63;;;11.17;;
20523;SDS011;10420;48.542;12.270;2023-02-28T12:30:02;20.73;;;10.00;;
20523;SDS011;10420;48.542;12.270;2023-02-28T12:35:14;19.87;;;9.57;;
20523;SDS011;10420;48.542;12.270;2023-02-28T12:40:20;20.87;;;10.80;;
20523;SDS011;10420;48.542;12.270;2023-02-28T12:45:34;25.20;;;10.93;;
20523;SDS011;10420;48.542;12.270;2023-02-28T12:50:39;20.53;;;10.53;;
20523;SDS011;10420;48.542;12.270;2023-02-28T12:55:42;22.05;;;13.13;;
20523;SDS011;10420;48.542;12.270;2023-02-28T13:11:58;23.17;;;11.43;;
20523;SDS011;10420;48.542;12.270;2023-02-28T13:17:01;22.47;;;10.80;;
20523;SDS011;10420;48.542;12.270;2023-02-28T13:27:40;21.67;;;10.50;;
20523;SDS011;10420;48.542;12.270;2023-02-28T13:32:41;24.13;;;12.50;;
20523;SDS011;10420;48.542;12.270;2023-02-28T13:37:43;23.63;;;11.80;;
20523;SDS011;10420;48.542;12.270;2023-02-28T13:42:48;20.87;;;11.77;;
20523;SDS011;10420;48.542;12.270;2023-02-28T13:47:54;20.37;;;9.70;;
20523;SDS011;10420;48.542;12.270;2023-02-28T14:08:32;22.90;;;11.13;;
20523;SDS011;10420;48.542;12.270;2023-02-28T14:13:41;23.13;;;10.63;;
20523;SDS011;10420;48.542;12.270;2023-02-28T14:18:51;23.23;;;10.90;;
20523;SDS011;10420;48.542;12.270;2023-02-28T14:29:53;24.20;;;11.83;;
20523;SDS011;10420;48.542;12.270;2023-02-28T14:40:21;24.97;;;11.63;;
20523;SDS011;10420;48.542;12.270;2023-02-28T14:45:35;18.17;;;9.73;;
20523;SDS011;10420;48.542;12.270;2023-02-28T14:50:37;24.20;;;11.33;;
20523;SDS011;10420;48.542;12.270;2023-02-28T14:55:43;25.37;;;12.33;;
20523;SDS011;10420;48.542;12.270;2023-02-28T15:00:46;24.97;;;12.27;;
20523;SDS011;10420;48.542;12.270;2023-02-28T15:05:52;25.53;;;12.80;;
20523;SDS011;10420;48.542;12.270;2023-02-28T15:10:56;23.83;;;13.13;;
20523;SDS011;10420;48.542;12.270;2023-02-28T15:16:03;26.80;;;14.40;;
20523;SDS011;10420;48.542;12.270;2023-02-28T15:21:11;26.40;;;13.27;;
20523;SDS011;10420;48.542;12.270;2023-02-28T15:26:17;29.87;;;14.43;;
20523;SDS011;10420;48.542;12.270;2023-02-28T15:31:29;26.90;;;12.53;;
20523;SDS011;10420;48.542;12.270;2023-02-28T15:36:33;28.97;;;13.27;;
20523;SDS011;10420;48.542;12.270;2023-02-28T15:41:37;39.07;;;18.67;;
20523;SDS011;10420;48.542;12.270;2023-02-28T15:46:38;30.53;;;14.30;;
20523;SDS011;10420;48.542;12.270;2023-02-28T15:51:43;27.67;;;13.33;;
20523;SDS011;10420;48.542;12.270;2023-02-28T15:56:44;29.00;;;14.10;;
20523;SDS011;10420;48.542;12.270;2023-02-28T16:01:47;29.00;;;14.20;;
20523;SDS011;10420;48.542;12.270;2023-02-28T16:07:19;36.07;;;16.57;;
20523;SDS011;10420;48.542;12.270;2023-02-28T16:12:20;38.43;;;18.03;;
20523;SDS011;10420;48.542;12.270;2023-02-28T16:17:26;32.17;;;15.37;;
20523;SDS011;10420;48.542;12.270;2023-02-28T16:22:33;32.67;;;15.93;;
20523;SDS011;10420;48.542;12.270;2023-02-28T16:27:35;45.63;;;20.67;;
20523;SDS011;10420;48.542;12.270;2023-02-28T16:32:37;39.70;;;17.90;;
20523;SDS011;10420;48.542;12.270;2023-02-28T16:37:38;41.50;;;16.90;;
20523;SDS011;10420;48.542;12.270;2023-02-28T16:42:39;30.03;;;15.40;;
20523;SDS011;10420;48.542;12.270;2023-02-28T16:47:40;34.17;;;17.37;;
20523;SDS011;10420;48.542;12.270;2023-02-28T16:52:41;39.60;;;17.43;;
20523;SDS011;10420;48.542;12.270;2023-02-28T16:57:41;32.97;;;15.47;;
20523;SDS011;10420;48.542;12.270;2023-02-28T17:02:44;32.63;;;15.03;;
20523;SDS011;10420;48.542;12.270;2023-02-28T17:07:45;29.33;;;14.40;;
20523;SDS011;10420;48.542;12.270;2023-02-28T17:12:46;36.13;;;16.10;;
20523;SDS011;10420;48.542;12.270;2023-02-28T17:17:47;32.03;;;15.80;;
20523;SDS011;10420;48.542;12.270;2023-02-28T17:22:49;32.87;;;15.30;;
20523;SDS011;10420;48.542;12.270;2023-02-28T17:27:50;28.90;;;14.50;;
20523;SDS011;10420;48.542;12.270;2023-02-28T17:32:51;31.37;;;15.30;;
20523;SDS011;10420;48.542;12.270;2023-02-28T17:37:52;31.40;;;13.47;;
20523;SDS011;10420;48.542;12.270;2023-02-28T17:42:53;33.77;;;15.30;;
20523;SDS011;10420;48.542;12.270;2023-02-28T17:47:55;37.57;;;15.87;;
20523;SDS011;10420;48.542;12.270;2023-02-28T17:52:55;36.57;;;15.53;;
20523;SDS011;10420;48.542;12.270;2023-02-28T17:57:56;32.97;;;14.90;;
20523;SDS011;10420;48.542;12.270;2023-02-28T18:02:56;35.07;;;15.63;;
20523;SDS011;10420;48.542;12.270;2023-02-28T18:07:57;34.13;;;15.60;;
20523;SDS011;10420;48.542;12.270;2023-02-28T18:12:58;33.17;;;15.30;;
20523;SDS011;10420;48.542;12.270;2023-02-28T18:17:59;36.37;;;16.00;;
20523;SDS011;10420;48.542;12.270;2023-02-28T18:23:00;28.43;;;14.67;;
20523;SDS011;10420;48.542;12.270;2023-02-28T18:28:01;31.50;;;14.97;;
20523;SDS011;10420;48.542;12.270;2023-02-28T18:33:02;31.40;;;15.47;;
20523;SDS011;10420;48.542;12.270;2023-02-28T18:38:07;49.10;;;17.60;;
20523;SDS011;10420;48.542;12.270;2023-02-28T18:43:12;33.37;;;16.03;;
20523;SDS011;10420;48.542;12.270;2023-02-28T18:48:13;27.83;;;13.27;;
20523;SDS011;10420;48.542;12.270;2023-02-28T18:53:14;30.43;;;15.53;;
20523;SDS011;10420;48.542;12.270;2023-02-28T18:58:15;34.67;;;15.30;;
20523;SDS011;10420;48.542;12.270;2023-02-28T19:03:15;48.53;;;21.03;;
20523;SDS011;10420;48.542;12.270;2023-02-28T19:08:16;39.07;;;18.00;;
20523;SDS011;10420;48.542;12.270;2023-02-28T19:13:16;33.73;;;15.73;;
20523;SDS011;10420;48.542;12.270;2023-02-28T19:18:17;33.87;;;15.33;;
20523;SDS011;10420;48.542;12.270;2023-02-28T19:23:18;34.50;;;14.97;;
20523;SDS011;10420;48.542;12.270;2023-02-28T19:28:18;33.00;;;15.73;;
20523;SDS011;10420;48.542;12.270;2023-02-28T19:33:19;34.90;;;15.60;;
20523;SDS011;10420;48.542;12.270;2023-02-28T19:38:20;46.27;;;20.10;;
20523;SDS011;10420;48.542;12.270;2023-02-28T19:43:20;41.47;;;19.20;;
20523;SDS011;10420;48.542;12.270;2023-02-28T19:48:21;48.83;;;21.70;;
20523;SDS011;10420;48.542;12.270;2023-02-28T19:53:29;266.13;;;79.20;;
20523;SDS011;10420;48.542;12.270;2023-02-28T19:58:31;127.70;;;48.90;;
20523;SDS011;10420;48.542;12.270;2023-02-28T20:03:32;39.83;;;16.47;;
20523;SDS011;10420;48.542;12.270;2023-02-28T20:08:33;38.90;;;16.20;;
20523;SDS011;10420;48.542;12.270;2023-02-28T20:13:34;30.23;;;15.30;;
20523;SDS011;10420;48.542;12.270;2023-02-28T20:18:35;31.83;;;15.23;;
20523;SDS011;10420;48.542;12.270;2023-02-28T20:23:37;34.97;;;16.17;;
20523;SDS011;10420;48.542;12.270;2023-02-28T20:28:38;35.63;;;15.73;;
20523;SDS011;10420;48.542;12.270;2023-02-28T20:33:42;33.40;;;15.93;;
20523;SDS011;10420;48.542;12.270;2023-02-28T20:38:43;33.63;;;15.90;;
20523;SDS011;10420;48.542;12.270;2023-02-28T20:43:44;35.47;;;15.40;;
20523;SDS011;10420;48.542;12.270;2023-02-28T20:48:44;32.50;;;15.13;;
20523;SDS011;10420;48.542;12.270;2023-02-28T20:53:45;32.67;;;15.37;;
20523;SDS011;10420;48.542;12.270;2023-02-28T20:58:47;34.27;;;16.57;;
20523;SDS011;10420;48.542;12.270;2023-02-28T21:03:48;38.17;;;16.63;;
20523;SDS011;10420;48.542;12.270;2023-02-28T21:08:51;34.30;;;16.10;;
20523;SDS011;10420;48.542;12.270;2023-02-28T21:13:52;37.77;;;16.37;;
20523;SDS011;10420;48.542;12.270;2023-02-28T21:18:53;41.70;;;17.80;;
20523;SDS011;10420;48.542;12.270;2023-02-28T21:23:54;31.93;;;15.43;;
20523;SDS011;10420;48.542;12.270;2023-02-28T21:28:56;31.43;;;15.23;;
20523;SDS011;10420;48.542;12.270;2023-02-28T21:33:58;31.37;;;15.60;;
20523;SDS011;10420;48.542;12.270;2023-02-28T21:39:05;32.90;;;15.77;;
20523;SDS011;10420;48.542;12.270;2023-02-28T21:44:08;35.70;;;15.80;;
20523;SDS011;10420;48.542;12.270;2023-02-28T21:49:17;31.57;;;14.63;;
20523;SDS011;10420;48.542;12.270;2023-02-28T21:54:17;34.93;;;15.80;;
20523;SDS011;10420;48.542;12.270;2023-02-28T21:59:18;33.50;;;16.10;;
20523;SDS011;10420;48.542;12.270;2023-02-28T22:04:19;32.00;;;15.80;;
20523;SDS011;10420;48.542;12.270;2023-02-28T22:09:20;36.80;;;16.63;;
20523;SDS011;10420;48.542;12.270;2023-02-28T22:14:21;30.13;;;14.10;;
20523;SDS011;10420;48.542;12.270;2023-02-28T22:19:22;34.00;;;16.23;;
20523;SDS011;10420;48.542;12.270;2023-02-28T22:24:23;32.33;;;15.93;;
20523;SDS011;10420;48.542;12.270;2023-02-28T22:29:23;35.67;;;16.50;;
20523;SDS011;10420;48.542;12.270;2023-02-28T22:34:24;30.80;;;14.57;;
20523;SDS011;10420;48.542;12.270;2023-02-28T22:39:25;32.70;;;15.70;;
20523;SDS011;10420;48.542;12.270;2023-02-28T22:44:25;34.33;;;16.13;;
20523;SDS011;10420;48.542;12.270;2023-02-28T22:49:26;34.90;;;16.10;;
20523;SDS011;10420;48.542;12.270;2023-02-28T22:54:27;33.80;;;15.40;;
20523;SDS011;10420;48.542;12.270;2023-02-28T22:59:27;28.27;;;12.00;;
20523;SDS011;10420;48.542;12.270;2023-02-28T23:04:28;35.13;;;15.83;;
20523;SDS011;10420;48.542;12.270;2023-02-28T23:09:29;32.23;;;15.93;;
20523;SDS011;10420;48.542;12.270;2023-02-28T23:14:29;31.67;;;15.67;;
20523;SDS011;10420;48.542;12.270;2023-02-28T23:19:30;35.10;;;15.70;;
20523;SDS011;10420;48.542;12.270;2023-02-28T23:24:32;36.20;;;16.37;;
20523;SDS011;10420;48.542;12.270;2023-02-28T23:29:34;32.03;;;14.53;;
20523;SDS011;10420;48.542;12.270;2023-02-28T23:34:35;32.80;;;16.37;;
20523;SDS011;10420;48.542;12.270;2023-02-28T23:39:36;31.63;;;15.80;;
20523;SDS011;10420;48.542;12.270;2023-02-28T23:44:36;39.80;;;17.10;;
20523;SDS011;10420;48.542;12.270;2023-02-28T23:49:37;35.30;;;15.97;;
20523;SDS011;10420;48.542;12.270;2023-02-28T23:54:38;33.90;;;16.63;;
20523;SDS011;10420;48.542;12.270;2023-02-28T23:59:39;37.30;;;15.33;;
